Time;durP1;ratioP1;P1;durP2;ratioP2;P2;SDS_P1;SDS_P2;PMS_P1;PMS_P2;Temp;Humidity;BMP_temperature;BMP_pressure;BME280_temperature;BME280_humidity;BME280_pressure;Samples;Min_cycle;Max_cycle;Signal;HPM_P1;HPM_P2
2022/10/15 00:00:28;;;;;;;7.05;5.28;;;12.80;99.90;;;;;;4896490;29;20075;-71
2022/10/15 00:02:53;;;;;;;7.10;5.53;;;12.30;99.90;;;;;;4881697;29;20142;-71
2022/10/15 00:05:20;;;;;;;6.72;5.40;;;12.60;99.90;;;;;;4882203;29;20058;-71
2022/10/15 00:07:46;;;;;;;8.10;6.07;;;12.20;99.90;;;;;;4897514;29;20080;-71
2022/10/15 00:10:12;;;;;;;6.80;5.55;;;13.00;99.90;;;;;;4897658;29;20122;-71
2022/10/15 00:12:39;;;;;;;6.40;5.38;;;12.30;99.90;;;;;;4897816;29;20091;-71
2022/10/15 00:15:05;;;;;;;6.82;5.35;;;12.90;99.90;;;;;;4896618;29;20059;-71
2022/10/15 00:17:32;;;;;;;;;;;12.90;99.90;;;;;;4898178;29;20054;-71
2022/10/15 00:19:57;;;;;;;5.80;4.28;;;12.70;99.90;;;;;;4897538;29;19923;-71
2022/10/15 00:22:23;;;;;;;5.55;4.47;;;11.80;99.90;;;;;;4882165;29;20058;-71
2022/10/15 00:24:49;;;;;;;4.88;4.00;;;12.60;99.90;;;;;;4897630;29;20412;-71
2022/10/15 00:27:15;;;;;;;5.60;4.20;;;12.70;99.90;;;;;;4882250;29;20055;-71
2022/10/15 00:29:40;;;;;;;5.15;4.25;;;13.00;99.90;;;;;;4895831;29;20059;-71
2022/10/15 00:32:06;;;;;;;5.43;3.78;;;13.00;99.90;;;;;;4897539;29;20048;-71
2022/10/15 00:34:32;;;;;;;5.47;4.43;;;12.70;99.90;;;;;;4897493;29;20132;-71
2022/10/15 00:36:57;;;;;;;5.50;4.25;;;13.00;99.90;;;;;;4897520;29;20052;-71
2022/10/15 00:39:23;;;;;;;6.05;4.05;;;11.80;99.90;;;;;;4896536;29;20048;-71
2022/10/15 00:41:48;;;;;;;4.25;3.70;;;11.80;99.90;;;;;;4896582;29;20040;-71
2022/10/15 00:44:20;;;;;;;5.22;3.78;;;12.00;99.90;;;;;;4882099;29;20048;-71
2022/10/15 00:46:49;;;;;;;7.28;5.00;;;12.20;99.90;;;;;;4897259;29;20086;-71
2022/10/15 00:49:39;;;;;;;5.32;4.60;;;12.90;99.90;;;;;;4897202;29;20445;-71
2022/10/15 00:52:09;;;;;;;5.35;4.20;;;12.40;99.90;;;;;;4896366;29;20436;-71
2022/10/15 00:54:46;;;;;;;5.25;4.45;;;12.50;99.90;;;;;;4898335;29;20504;-71
2022/10/15 00:57:13;;;;;;;5.30;4.28;;;12.60;99.90;;;;;;4881487;29;20428;-71
2022/10/15 00:59:46;;;;;;;5.65;4.68;;;12.10;99.90;;;;;;4882009;29;20384;-71
2022/10/15 01:02:12;;;;;;;5.75;4.63;;;11.80;99.90;;;;;;4897177;29;20051;-71
2022/10/15 01:04:39;;;;;;;6.20;4.80;;;11.70;99.90;;;;;;4880807;29;20496;-71
2022/10/15 01:07:05;;;;;;;7.00;5.78;;;11.70;99.90;;;;;;4897056;29;20048;-71
2022/10/15 01:09:31;;;;;;;;;;;11.90;99.90;;;;;;4896851;29;20047;-71
2022/10/15 01:11:57;;;;;;;5.30;4.60;;;12.10;99.90;;;;;;4896948;29;20379;-71
2022/10/15 01:14:28;;;;;;;5.50;4.32;;;11.70;99.90;;;;;;4900519;29;20064;-71
2022/10/15 01:17:18;;;;;;;5.18;3.85;;;12.40;99.90;;;;;;4900366;29;20051;-71
2022/10/15 01:20:04;;;;;;;4.53;3.63;;;12.70;99.90;;;;;;4900607;29;20046;-71
2022/10/15 01:22:39;;;;;;;4.60;3.97;;;12.50;99.90;;;;;;4900361;29;20500;-71
2022/10/15 01:25:43;;;;;;;5.43;4.43;;;12.10;99.90;;;;;;4899296;29;20083;-71
2022/10/15 01:28:31;;;;;;;5.97;4.57;;;11.60;99.90;;;;;;4871553;29;20048;-71
2022/10/15 01:31:28;;;;;;;4.50;3.95;;;11.60;99.90;;;;;;4898942;29;20044;-71
2022/10/15 01:34:21;;;;;;;5.15;4.07;;;12.70;99.90;;;;;;4870458;29;20213;-71
2022/10/15 01:37:10;;;;;;;4.47;3.40;;;11.90;99.90;;;;;;4898859;29;20377;-71
2022/10/15 01:39:43;;;;;;;3.78;2.92;;;11.70;99.90;;;;;;4900021;29;20165;-71
2022/10/15 01:42:18;;;;;;;3.45;2.97;;;11.80;99.90;;;;;;4900152;29;20496;-71
2022/10/15 01:45:02;;;;;;;3.72;3.05;;;12.30;99.90;;;;;;4899785;29;20583;-71
2022/10/15 01:47:48;;;;;;;4.63;3.63;;;11.80;99.90;;;;;;4899854;29;20048;-72
2022/10/15 01:50:17;;;;;;;4.00;3.40;;;12.60;99.90;;;;;;4899531;29;20063;-71
2022/10/15 01:52:44;;;;;;;4.05;3.63;;;12.50;99.90;;;;;;4898898;29;20575;-71
2022/10/15 01:55:11;;;;;;;;;;;12.70;99.90;;;;;;4900127;29;20115;-71
2022/10/15 01:57:40;;;;;;;3.88;3.20;;;12.70;99.90;;;;;;4899634;29;19927;-71
2022/10/15 02:00:06;;;;;;;4.97;4.22;;;12.60;99.90;;;;;;4899554;29;20408;-71
2022/10/15 02:02:32;;;;;;;5.30;4.07;;;11.90;99.90;;;;;;4899328;29;20048;-71
2022/10/15 02:04:57;;;;;;;4.35;3.65;;;12.20;99.90;;;;;;4899667;29;20157;-71
2022/10/15 02:07:43;;;;;;;6.18;4.35;;;12.70;99.90;;;;;;4898636;29;20044;-71
2022/10/15 02:10:33;;;;;;;5.00;4.22;;;11.60;99.90;;;;;;4899545;29;20392;-71
2022/10/15 02:13:02;;;;;;;4.57;3.88;;;12.60;99.90;;;;;;4899289;29;20534;-71
2022/10/15 02:16:02;;;;;;;6.22;4.90;;;12.70;99.90;;;;;;4899246;29;20158;-71
2022/10/15 02:18:45;;;;;;;5.60;4.70;;;11.60;99.90;;;;;;4899347;29;20139;-71
2022/10/15 02:21:17;;;;;;;6.65;5.07;;;12.60;99.90;;;;;;4898427;29;20400;-71
2022/10/15 02:24:00;;;;;;;6.00;4.85;;;12.30;99.90;;;;;;4899126;29;20070;-71
2022/10/15 02:26:29;;;;;;;6.10;5.00;;;11.90;99.90;;;;;;4898363;29;20097;-71
2022/10/15 02:28:57;;;;;;;5.55;4.78;;;12.60;99.90;;;;;;4899035;29;20095;-71
2022/10/15 02:31:25;;;;;;;5.60;4.30;;;12.10;99.90;;;;;;4898008;29;20059;-71
2022/10/15 02:33:56;;;;;;;5.72;4.38;;;11.50;99.90;;;;;;4899104;29;20048;-71
2022/10/15 02:36:22;;;;;;;5.85;4.32;;;12.20;99.90;;;;;;4897950;29;20071;-71
2022/10/15 02:38:50;;;;;;;5.90;4.60;;;11.50;99.90;;;;;;4898902;29;20512;-71
2022/10/15 02:41:16;;;;;;;6.25;5.28;;;11.90;99.90;;;;;;4897735;29;20051;-71
2022/10/15 02:43:42;;;;;;;6.60;5.38;;;12.60;99.90;;;;;;4898721;29;20055;-71
2022/10/15 02:46:11;;;;;;;7.93;6.60;;;12.20;99.90;;;;;;4897915;29;20048;-71
2022/10/15 02:48:36;;;;;;;5.95;5.07;;;12.50;99.90;;;;;;4898924;29;20144;-71
2022/10/15 02:51:03;;;;;;;5.68;4.40;;;12.00;99.90;;;;;;4898575;29;20605;-71
2022/10/15 02:53:29;;;;;;;5.38;4.30;;;11.60;99.90;;;;;;4897605;29;20513;-71
2022/10/15 02:55:54;;;;;;;6.70;5.57;;;11.80;99.90;;;;;;4898634;29;20048;-72
2022/10/15 02:58:20;;;;;;;6.20;4.97;;;12.00;99.90;;;;;;4898458;29;20130;-71
2022/10/15 03:00:46;;;;;;;4.75;4.20;;;12.30;99.90;;;;;;4899056;29;20051;-71
2022/10/15 03:03:11;;;;;;;5.47;4.70;;;12.00;99.90;;;;;;4897982;29;20075;-71
2022/10/15 03:05:37;;;;;;;5.22;4.47;;;12.40;99.90;;;;;;4897830;29;20204;-71
2022/10/15 03:08:03;;;;;;;5.22;4.35;;;11.50;99.90;;;;;;4898822;29;20056;-71
2022/10/15 03:10:29;;;;;;;4.63;3.58;;;12.50;99.90;;;;;;4897371;29;20353;-71
2022/10/15 03:12:54;;;;;;;4.43;4.00;;;11.50;99.90;;;;;;4882838;29;20075;-71
2022/10/15 03:15:20;;;;;;;4.53;3.58;;;11.50;99.90;;;;;;4898387;29;20044;-71
2022/10/15 03:17:45;;;;;;;6.47;4.13;;;11.50;99.90;;;;;;4898195;29;20052;-71
2022/10/15 03:20:11;;;;;;;5.20;4.47;;;12.40;99.90;;;;;;4898068;29;20055;-71
2022/10/15 03:22:37;;;;;;;5.13;4.25;;;12.60;99.90;;;;;;4898363;29;20079;-71
2022/10/15 03:25:03;;;;;;;6.07;4.93;;;11.70;99.90;;;;;;4896221;29;20472;-71
2022/10/15 03:27:28;;;;;;;6.97;5.60;;;12.30;99.90;;;;;;4897254;29;20048;-71
2022/10/15 03:29:54;;;;;;;6.80;5.68;;;12.20;99.90;;;;;;4897791;29;20130;-71
2022/10/15 03:32:20;;;;;;;8.32;6.80;;;12.40;99.90;;;;;;4882247;29;20048;-71
2022/10/15 03:34:45;;;;;;;7.05;5.50;;;11.40;99.90;;;;;;4866705;29;20293;-71
2022/10/15 03:37:11;;;;;;;6.07;5.22;;;11.60;99.90;;;;;;4896971;29;20059;-71
2022/10/15 03:39:37;;;;;;;6.57;4.88;;;11.60;99.90;;;;;;4881957;29;20103;-71
2022/10/15 03:42:02;;;;;;;5.60;4.65;;;11.50;99.90;;;;;;4897935;29;20522;-71
2022/10/15 03:44:28;;;;;;;6.00;4.78;;;11.90;99.90;;;;;;4897993;29;20083;-71
2022/10/15 03:46:54;;;;;;;6.57;4.80;;;12.00;99.90;;;;;;4896980;29;20052;-71
2022/10/15 03:49:20;;;;;;;5.53;4.53;;;12.60;99.90;;;;;;4897908;29;20048;-71
2022/10/15 03:51:45;;;;;;;5.43;4.50;;;11.40;99.90;;;;;;4881160;29;20052;-71
2022/10/15 03:54:11;;;;;;;5.22;4.47;;;12.60;99.90;;;;;;4897857;29;20075;-71
2022/10/15 03:56:36;;;;;;;4.97;4.18;;;12.20;99.90;;;;;;4896937;29;20044;-71
2022/10/15 03:59:02;;;;;;;6.05;4.50;;;12.20;99.90;;;;;;4896949;29;20036;-71
2022/10/15 04:01:28;;;;;;;6.95;5.10;;;12.50;99.90;;;;;;4897895;29;20055;-71
2022/10/15 04:03:54;;;;;;;5.43;4.35;;;12.20;99.90;;;;;;4896863;29;20044;-71
2022/10/15 04:06:20;;;;;;;5.32;4.40;;;12.10;99.90;;;;;;4882248;29;20055;-71
2022/10/15 04:08:45;;;;;;;6.15;4.75;;;11.40;99.90;;;;;;4896865;29;20508;-71
2022/10/15 04:11:11;;;;;;;6.47;5.10;;;12.50;99.90;;;;;;4896657;29;20080;-71
2022/10/15 04:13:37;;;;;;;6.07;4.80;;;12.50;99.90;;;;;;4897381;29;20047;-72
2022/10/15 04:16:06;;;;;;;5.32;4.22;;;11.50;99.90;;;;;;4897334;29;20047;-71
2022/10/15 04:18:32;;;;;;;4.88;3.60;;;12.50;99.90;;;;;;4897361;29;20540;-71
2022/10/15 04:20:59;;;;;;;6.32;5.13;;;12.60;99.90;;;;;;4897522;29;20134;-71
2022/10/15 04:23:24;;;;;;;8.20;6.22;;;11.90;99.90;;;;;;4897334;29;20496;-70
2022/10/15 04:25:50;;;;;;;7.45;5.63;;;12.60;99.90;;;;;;4881124;29;20044;-71
2022/10/15 04:28:16;;;;;;;7.63;5.45;;;12.60;99.90;;;;;;4881314;29;20047;-71
2022/10/15 04:30:41;;;;;;;6.78;5.40;;;12.00;99.90;;;;;;4897154;29;20067;-71
2022/10/15 04:33:08;;;;;;;7.05;5.80;;;11.70;99.90;;;;;;4881908;29;20107;-71
2022/10/15 04:35:33;;;;;;;8.50;6.65;;;11.60;99.90;;;;;;4897315;29;20139;-70
2022/10/15 04:38:00;;;;;;;9.05;7.25;;;11.40;99.90;;;;;;4881829;29;20140;-71
2022/10/15 04:40:26;;;;;;;9.25;6.50;;;12.60;99.90;;;;;;4896533;29;20060;-71
2022/10/15 04:42:51;;;;;;;8.25;6.07;;;11.70;99.90;;;;;;4897271;29;20054;-71
2022/10/15 04:45:17;;;;;;;5.60;4.70;;;11.90;99.90;;;;;;4881387;29;20063;-71
2022/10/15 04:47:43;;;;;;;5.65;4.95;;;11.40;99.90;;;;;;4898594;29;20084;-70
2022/10/15 04:50:09;;;;;;;;;;;12.50;99.90;;;;;;4901635;29;20507;-70
2022/10/15 04:52:35;;;;;;;7.22;5.10;;;12.60;99.90;;;;;;4900981;29;19926;-71
2022/10/15 04:55:03;;;;;;;8.27;6.10;;;11.30;99.90;;;;;;4900981;29;20107;-70
2022/10/15 04:57:29;;;;;;;5.85;4.50;;;12.50;99.90;;;;;;4900936;29;20566;-71
2022/10/15 04:59:56;;;;;;;5.38;4.10;;;11.30;99.90;;;;;;4900289;29;20067;-70
2022/10/15 05:02:22;;;;;;;8.48;5.88;;;12.30;99.90;;;;;;4900799;29;20127;-70
2022/10/15 05:04:47;;;;;;;5.88;4.93;;;11.50;99.90;;;;;;4900900;29;20143;-70
2022/10/15 05:07:13;;;;;;;5.53;4.93;;;12.20;99.90;;;;;;4900806;29;20047;-71
2022/10/15 05:09:39;;;;;;;7.63;5.68;;;11.40;99.90;;;;;;4899679;29;20043;-70
2022/10/15 05:12:04;;;;;;;7.38;6.10;;;12.30;99.90;;;;;;4900610;29;20067;-71
2022/10/15 05:14:30;;;;;;;8.63;6.65;;;11.30;99.90;;;;;;4899899;29;20095;-70
2022/10/15 05:16:56;;;;;;;7.60;5.72;;;12.10;99.90;;;;;;4900676;29;20051;-70
2022/10/15 05:19:21;;;;;;;6.28;5.25;;;11.60;99.90;;;;;;4899660;29;20045;-70
2022/10/15 05:21:47;;;;;;;7.45;5.95;;;11.30;99.90;;;;;;4900551;29;20060;-71
2022/10/15 05:24:13;;;;;;;6.60;5.53;;;12.00;99.90;;;;;;4899548;29;20051;-71
2022/10/15 05:26:38;;;;;;;7.20;5.68;;;12.30;99.90;;;;;;4900261;29;20186;-71
2022/10/15 05:29:04;;;;;;;7.22;6.05;;;11.30;99.90;;;;;;4900357;29;20052;-71
2022/10/15 05:31:32;;;;;;;8.23;5.82;;;12.10;99.90;;;;;;4899306;29;20083;-71
2022/10/15 05:33:57;;;;;;;7.22;5.25;;;12.20;99.90;;;;;;4900203;29;20086;-71
2022/10/15 05:36:28;;;;;;;6.55;5.10;;;12.30;99.90;;;;;;4900021;29;20059;-71
2022/10/15 05:39:05;;;;;;;6.28;5.38;;;12.20;99.90;;;;;;4899429;29;20058;-71
2022/10/15 05:41:31;;;;;;;7.00;5.40;;;11.20;99.90;;;;;;4900255;29;20511;-71
2022/10/15 05:43:58;;;;;;;8.50;6.63;;;12.30;99.90;;;;;;4869290;29;20060;-71
2022/10/15 05:46:24;;;;;;;8.85;7.00;;;12.30;99.90;;;;;;4899092;29;20083;-71
2022/10/15 05:48:55;;;;;;;9.43;7.80;;;12.30;99.90;;;;;;4881101;29;20044;-71
2022/10/15 05:51:21;;;;;;;9.27;7.35;;;11.20;99.90;;;;;;4898052;29;20056;-71
2022/10/15 05:53:51;;;;;;;9.30;7.63;;;11.30;99.90;;;;;;4899696;29;20048;-71
2022/10/15 05:56:17;;;;;;;9.45;7.40;;;11.30;99.90;;;;;;4899508;29;20513;-71
2022/10/15 05:58:42;;;;;;;9.23;7.07;;;11.10;99.90;;;;;;4898367;29;20135;-71
2022/10/15 06:01:10;;;;;;;9.27;6.95;;;12.30;99.90;;;;;;4898593;29;20036;-71
2022/10/15 06:03:36;;;;;;;8.07;6.70;;;12.20;99.90;;;;;;4899098;29;20045;-71
2022/10/15 06:06:02;;;;;;;7.28;6.03;;;12.20;99.90;;;;;;4898074;29;20050;-71
2022/10/15 06:08:29;;;;;;;7.75;6.30;;;12.20;99.90;;;;;;4899539;29;20416;-71
2022/10/15 06:10:55;;;;;;;7.75;6.15;;;11.20;99.90;;;;;;4883976;29;20048;-71
2022/10/15 06:13:21;;;;;;;;;;;11.40;99.90;;;;;;4882652;29;20044;-71
2022/10/15 06:15:47;;;;;;;8.95;6.38;;;11.90;99.90;;;;;;4897734;29;19962;-71
2022/10/15 06:18:15;;;;;;;8.85;6.80;;;11.30;99.90;;;;;;4898874;29;20040;-71
2022/10/15 06:20:41;;;;;;;8.80;6.57;;;11.80;99.90;;;;;;4899584;29;20484;-71
2022/10/15 06:23:09;;;;;;;9.50;7.68;;;11.30;99.90;;;;;;4868592;29;20066;-71
2022/10/15 06:25:35;;;;;;;13.32;9.50;;;11.20;99.90;;;;;;4899375;29;20058;-71
2022/10/15 06:28:05;;;;;;;9.18;7.32;;;11.70;99.90;;;;;;4899334;29;20134;-71
2022/10/15 06:30:31;;;;;;;9.55;7.15;;;11.60;99.90;;;;;;4898293;29;20040;-71
2022/10/15 06:32:57;;;;;;;11.75;8.52;;;11.30;99.90;;;;;;4899205;29;20044;-71
2022/10/15 06:35:24;;;;;;;;;;;11.20;99.90;;;;;;4899487;29;20151;-71
2022/10/15 06:37:49;;;;;;;12.88;8.82;;;12.40;99.90;;;;;;4883139;29;19961;-71
2022/10/15 06:40:15;;;;;;;11.10;8.95;;;12.40;99.90;;;;;;4880959;29;20384;-71
2022/10/15 06:42:41;;;;;;;;;;;11.50;99.90;;;;;;4896663;29;20097;-71
2022/10/15 06:45:11;;;;;;;12.02;9.25;;;11.40;99.90;;;;;;4895963;29;19923;-71
2022/10/15 06:47:39;;;;;;;13.60;9.93;;;12.40;99.90;;;;;;4898339;29;20051;-71
2022/10/15 06:50:05;;;;;;;11.10;8.48;;;12.00;99.90;;;;;;4899022;29;20151;-71
2022/10/15 06:52:31;;;;;;;13.10;9.93;;;11.30;99.90;;;;;;4896974;29;20048;-71
2022/10/15 06:54:57;;;;;;;;;;;12.40;99.90;;;;;;4883595;29;20404;-71
2022/10/15 06:57:24;;;;;;;14.45;10.48;;;12.40;99.90;;;;;;4899021;29;19927;-71
2022/10/15 06:59:50;;;;;;;15.80;12.05;;;12.30;99.90;;;;;;4898010;29;20122;-71
2022/10/15 07:02:18;;;;;;;10.98;8.25;;;11.30;99.90;;;;;;4898456;29;20504;-71
2022/10/15 07:04:44;;;;;;;13.77;10.00;;;12.40;99.90;;;;;;4896306;29;20087;-71
2022/10/15 07:07:09;;;;;;;;;;;11.30;99.90;;;;;;4898084;29;20078;-71
2022/10/15 07:09:35;;;;;;;12.82;9.23;;;11.60;99.90;;;;;;4882908;29;19974;-71
2022/10/15 07:12:01;;;;;;;11.75;8.77;;;11.40;99.90;;;;;;4898026;29;20052;-71
2022/10/15 07:14:27;;;;;;;14.65;10.90;;;12.30;99.90;;;;;;4882710;29;20100;-71
2022/10/15 07:16:53;;;;;;;11.45;9.00;;;11.50;99.90;;;;;;4898526;29;20044;-71
2022/10/15 07:19:18;;;;;;;10.88;8.88;;;12.30;99.90;;;;;;4898069;29;20491;-71
2022/10/15 07:21:44;;;;;;;13.10;9.77;;;12.20;99.90;;;;;;4897551;29;20051;-71
2022/10/15 07:24:10;;;;;;;11.63;9.00;;;12.60;99.90;;;;;;4882087;29;20055;-71
2022/10/15 07:26:36;;;;;;;10.73;8.00;;;12.20;99.90;;;;;;4898165;29;20107;-71
2022/10/15 07:29:02;;;;;;;9.82;8.20;;;11.90;99.90;;;;;;4898352;29;20051;-71
2022/10/15 07:31:28;;;;;;;12.43;8.82;;;11.50;99.90;;;;;;4898092;29;20052;-71
2022/10/15 07:33:54;;;;;;;12.80;9.35;;;12.70;99.90;;;;;;4898261;29;20058;-71
2022/10/15 07:36:19;;;;;;;12.85;10.05;;;12.80;99.90;;;;;;4864863;29;20071;-71
2022/10/15 07:38:45;;;;;;;13.63;9.45;;;11.60;99.90;;;;;;4882985;29;20051;-71
2022/10/15 07:41:12;;;;;;;15.23;11.35;;;12.30;99.90;;;;;;4897254;29;20056;-71
2022/10/15 07:43:37;;;;;;;14.38;10.48;;;11.70;99.90;;;;;;4909811;29;20052;-71
2022/10/15 07:46:04;;;;;;;13.75;10.68;;;12.60;99.90;;;;;;4896423;29;20063;-71
2022/10/15 07:48:30;;;;;;;;;;;11.80;99.90;;;;;;4897409;29;20052;-71
2022/10/15 07:50:57;;;;;;;15.65;12.02;;;12.90;99.90;;;;;;4898142;29;19934;-71
2022/10/15 07:53:23;;;;;;;14.93;11.60;;;11.80;99.90;;;;;;4882566;29;20540;-71
2022/10/15 07:55:49;;;;;;;16.08;11.43;;;12.30;99.90;;;;;;4881441;29;20059;-71
2022/10/15 07:58:15;;;;;;;14.85;10.60;;;11.90;99.90;;;;;;4894454;29;20040;-71
2022/10/15 08:00:41;;;;;;;10.40;8.45;;;12.60;99.90;;;;;;4896104;29;20052;-71
2022/10/15 08:03:06;;;;;;;12.63;9.30;;;13.30;99.90;;;;;;4882199;29;20059;-71
2022/10/15 08:05:33;;;;;;;16.73;11.80;;;13.10;99.90;;;;;;4898232;29;20052;-71
2022/10/15 08:07:59;;;;;;;15.32;10.93;;;12.90;99.90;;;;;;4913885;29;20127;-70
2022/10/15 08:10:25;;;;;;;;;;;13.40;99.90;;;;;;4881646;29;20494;-70
2022/10/15 08:12:51;;;;;;;15.43;11.13;;;12.80;99.90;;;;;;4897798;29;19923;-70
2022/10/15 08:15:16;;;;;;;15.00;11.70;;;13.10;99.90;;;;;;4882181;29;20052;-69
2022/10/15 08:17:42;;;;;;;15.68;11.45;;;12.60;99.90;;;;;;4897632;29;20059;-70
2022/10/15 08:20:08;;;;;;;19.90;13.80;;;12.50;99.90;;;;;;4882200;29;20048;-70
2022/10/15 08:22:34;;;;;;;19.05;12.50;;;12.70;99.90;;;;;;4899002;29;20408;-70
2022/10/15 08:25:00;;;;;;;18.10;12.98;;;13.40;99.90;;;;;;4885140;29;20040;-70
2022/10/15 08:27:25;;;;;;;17.05;12.63;;;13.50;99.90;;;;;;4901539;29;20040;-70
2022/10/15 08:29:51;;;;;;;17.13;12.77;;;12.70;99.90;;;;;;4885823;29;20048;-71
2022/10/15 08:32:17;;;;;;;16.30;12.55;;;12.80;99.90;;;;;;4870304;29;20063;-70
2022/10/15 08:34:43;;;;;;;14.80;11.23;;;13.70;99.90;;;;;;4885267;29;20142;-70
2022/10/15 08:37:08;;;;;;;14.07;11.07;;;13.10;99.90;;;;;;4885901;29;20047;-70
2022/10/15 08:39:34;;;;;;;12.10;9.75;;;12.70;99.90;;;;;;4885099;29;20103;-70
2022/10/15 08:42:11;;;;;;;15.63;11.48;;;13.70;99.90;;;;;;4885726;29;20051;-70
2022/10/15 08:44:48;;;;;;;15.20;11.38;;;13.50;99.90;;;;;;4901142;29;20106;-70
2022/10/15 08:47:26;;;;;;;16.08;12.20;;;13.00;99.90;;;;;;4901192;29;20067;-70
2022/10/15 08:49:58;;;;;;;17.70;12.93;;;13.00;99.90;;;;;;4885642;29;20099;-70
2022/10/15 08:52:42;;;;;;;23.13;16.95;;;12.90;99.90;;;;;;4884563;29;20496;-70
2022/10/15 08:55:11;;;;;;;20.38;15.20;;;13.20;99.90;;;;;;4900176;29;20111;-70
2022/10/15 08:57:57;;;;;;;19.10;13.95;;;12.80;99.90;;;;;;4901685;29;20493;-70
2022/10/15 09:00:37;;;;;;;16.85;11.55;;;13.90;99.90;;;;;;4901309;29;20052;-70
2022/10/15 09:03:24;;;;;;;19.77;15.02;;;13.50;99.90;;;;;;4901229;29;20048;-71
2022/10/15 09:06:21;;;;;;;22.02;16.08;;;13.00;99.90;;;;;;4901285;29;20099;-70
2022/10/15 09:09:29;;;;;;;24.85;17.92;;;12.90;99.90;;;;;;4900033;29;20488;-70
2022/10/15 09:12:16;;;;;;;21.10;15.73;;;13.60;99.90;;;;;;4900632;29;20132;-70
2022/10/15 09:14:43;;;;;;;19.65;15.38;;;13.90;99.90;;;;;;4900797;29;20188;-71
2022/10/15 09:17:24;;;;;;;16.95;13.10;;;14.00;99.90;;;;;;4899281;29;20044;-71
2022/10/15 09:19:55;;;;;;;17.95;14.27;;;13.80;99.90;;;;;;4899747;29;20055;-71
2022/10/15 09:22:27;;;;;;;23.60;17.70;;;13.30;99.90;;;;;;4900652;29;20051;-70
2022/10/15 09:24:53;;;;;;;18.02;14.07;;;13.10;99.90;;;;;;4899634;29;20056;-70
2022/10/15 09:27:35;;;;;;;;;;;13.10;99.90;;;;;;4900110;29;20044;-70
2022/10/15 09:30:32;;;;;;;18.75;13.68;;;13.60;99.90;;;;;;4881802;29;19926;-71
2022/10/15 09:33:11;;;;;;;16.98;12.48;;;14.00;99.90;;;;;;4885259;29;20051;-70
2022/10/15 09:35:51;;;;;;;18.50;13.77;;;13.50;99.90;;;;;;4900255;29;20056;-70
2022/10/15 09:38:38;;;;;;;21.25;14.70;;;13.20;99.90;;;;;;4900390;29;20135;-70
2022/10/15 09:41:37;;;;;;;16.63;12.80;;;13.60;99.90;;;;;;4899124;29;20051;-70
2022/10/15 09:44:04;;;;;;;12.75;10.05;;;13.70;99.90;;;;;;4899183;29;20197;-71
2022/10/15 09:46:29;;;;;;;14.30;11.65;;;13.00;99.90;;;;;;4868981;29;20071;-70
2022/10/15 09:49:19;;;;;;;14.48;10.70;;;13.70;99.90;;;;;;4884678;29;20044;-71
2022/10/15 09:51:58;;;;;;;15.60;11.73;;;13.00;99.90;;;;;;4900012;29;20126;-71
2022/10/15 09:54:38;;;;;;;17.00;12.48;;;13.10;99.90;;;;;;4899965;29;20055;-71
2022/10/15 09:57:08;;;;;;;16.13;12.23;;;13.40;99.90;;;;;;4899370;29;20047;-70
2022/10/15 09:59:34;;;;;;;17.63;12.32;;;12.90;99.90;;;;;;4913477;29;20044;-71
2022/10/15 10:02:13;;;;;;;17.92;12.80;;;13.00;99.90;;;;;;4884474;29;20460;-70
2022/10/15 10:04:39;;;;;;;15.68;10.73;;;13.60;99.90;;;;;;4917052;29;20448;-72
2022/10/15 10:07:06;;;;;;;17.55;12.32;;;13.10;99.90;;;;;;4899969;29;20044;-70
2022/10/15 10:09:46;;;;;;;17.83;12.80;;;13.60;99.90;;;;;;4900168;29;20377;-70
2022/10/15 10:12:21;;;;;;;18.88;13.32;;;13.60;99.90;;;;;;4898069;29;20048;-71
2022/10/15 10:14:55;;;;;;;20.40;14.32;;;13.40;99.90;;;;;;4898792;29;20073;-71
2022/10/15 10:17:23;;;;;;;22.98;15.10;;;13.50;99.90;;;;;;4898960;29;20048;-70
2022/10/15 10:20:07;;;;;;;20.00;13.48;;;13.10;99.90;;;;;;4899637;29;20084;-71
2022/10/15 10:22:51;;;;;;;19.33;13.32;;;13.60;99.90;;;;;;4899607;29;20084;-70
2022/10/15 10:25:29;;;;;;;19.33;12.48;;;13.40;99.90;;;;;;4899541;29;20052;-70
2022/10/15 10:28:10;;;;;;;17.23;11.60;;;13.00;99.90;;;;;;4882013;29;20379;-71
2022/10/15 10:30:56;;;;;;;13.77;9.93;;;12.90;99.90;;;;;;4883899;29;20420;-71
2022/10/15 10:33:36;;;;;;;14.75;10.13;;;13.80;99.90;;;;;;4887656;29;20190;-72
2022/10/15 10:36:03;;;;;;;14.55;9.85;;;13.10;99.90;;;;;;4883686;29;20060;-71
2022/10/15 10:38:39;;;;;;;13.38;9.10;;;13.40;99.90;;;;;;4899612;29;20464;-71
2022/10/15 10:41:08;;;;;;;11.63;8.68;;;13.80;99.90;;;;;;4898218;29;20079;-71
2022/10/15 10:43:54;;;;;;;11.48;8.52;;;13.80;99.90;;;;;;4898398;29;20123;-71
2022/10/15 10:46:23;;;;;;;12.27;8.75;;;13.70;99.90;;;;;;4898352;29;20056;-71
2022/10/15 10:48:53;;;;;;;12.07;8.52;;;13.50;99.90;;;;;;4899139;29;20052;-70
2022/10/15 10:51:27;;;;;;;10.30;7.20;;;13.10;99.90;;;;;;4881866;29;20167;-71
2022/10/15 10:54:02;;;;;;;10.50;7.50;;;13.30;99.90;;;;;;4898986;29;20040;-71
2022/10/15 10:56:38;;;;;;;9.05;7.00;;;14.00;99.90;;;;;;4898090;29;20044;-71
2022/10/15 10:59:15;;;;;;;8.38;6.38;;;13.50;99.90;;;;;;4897787;29;20095;-71
2022/10/15 11:01:41;;;;;;;8.73;6.53;;;14.30;99.90;;;;;;4898099;29;20047;-72
2022/10/15 11:04:23;;;;;;;10.68;8.40;;;14.20;99.90;;;;;;4883294;29;20044;-71
2022/10/15 11:07:02;;;;;;;11.48;8.05;;;14.20;99.90;;;;;;4898809;29;20055;-71
2022/10/15 11:09:41;;;;;;;11.13;8.50;;;14.30;99.90;;;;;;4898992;29;20075;-71
2022/10/15 11:12:34;;;;;;;11.00;7.70;;;14.10;99.90;;;;;;4914756;29;20103;-71
2022/10/15 11:15:29;;;;;;;8.77;7.22;;;13.90;99.90;;;;;;4897745;29;20040;-71
2022/10/15 11:18:30;;;;;;;8.60;6.50;;;14.40;99.90;;;;;;4877657;29;20135;-72
2022/10/15 11:20:55;;;;;;;8.43;6.10;;;14.00;99.90;;;;;;4896978;29;20126;-71
2022/10/15 11:23:40;;;;;;;8.05;5.90;;;14.40;99.90;;;;;;4898572;29;20548;-71
2022/10/15 11:26:22;;;;;;;8.70;6.25;;;14.40;99.90;;;;;;4881462;29;20131;-71
2022/10/15 11:29:09;;;;;;;6.75;5.40;;;14.50;99.90;;;;;;4898700;29;20051;-78
2022/10/15 11:31:55;;;;;;;6.60;4.68;;;14.70;99.90;;;;;;4883158;29;20051;-78
2022/10/15 11:34:49;;;;;;;7.55;5.55;;;14.30;99.90;;;;;;4897933;29;20040;-78
2022/10/15 11:37:53;;;;;;;8.50;6.57;;;14.30;99.90;;;;;;4866263;29;20084;-79
2022/10/15 11:40:55;;;;;;;8.07;6.15;;;14.70;99.90;;;;;;4880132;29;20480;-79
2022/10/15 11:43:50;;;;;;;4.82;4.32;;;14.40;99.90;;;;;;4879886;29;20040;-79
2022/10/15 11:46:51;;;;;;;5.40;4.60;;;14.70;99.90;;;;;;4867064;29;20393;-79
2022/10/15 11:49:44;;;;;;;6.68;5.85;;;14.60;99.90;;;;;;4898278;29;20047;-79
2022/10/15 11:52:40;;;;;;;8.05;6.00;;;15.00;99.90;;;;;;4897605;29;20051;-79
2022/10/15 11:55:24;;;;;;;6.50;5.65;;;15.00;99.90;;;;;;4882370;29;20044;-79
2022/10/15 11:57:55;;;;;;;5.63;5.03;;;14.90;99.90;;;;;;4897714;29;20396;-79
2022/10/15 12:00:38;;;;;;;7.18;5.57;;;14.70;99.90;;;;;;4897604;29;20496;-78
2022/10/15 12:03:26;;;;;;;7.47;6.20;;;14.90;99.90;;;;;;4895542;29;20055;-78
2022/10/15 12:06:03;;;;;;;9.27;7.32;;;14.60;99.90;;;;;;4882827;29;20108;-79
2022/10/15 12:08:33;;;;;;;7.28;6.47;;;14.70;99.90;;;;;;4898449;29;20453;-78
2022/10/15 12:11:27;;;;;;;7.95;6.10;;;15.00;99.90;;;;;;4898099;29;20052;-79
2022/10/15 12:14:18;;;;;;;6.93;5.57;;;14.90;99.90;;;;;;4897337;29;20040;-78
2022/10/15 12:16:58;;;;;;;8.25;5.93;;;15.10;99.90;;;;;;4881206;29;20044;-78
2022/10/15 12:19:40;;;;;;;7.90;6.35;;;14.80;99.90;;;;;;4898452;29;20167;-78
2022/10/15 12:22:10;;;;;;;7.38;5.93;;;15.10;99.90;;;;;;4901513;29;20052;-79
2022/10/15 12:24:39;;;;;;;8.32;6.88;;;14.70;99.90;;;;;;4897546;29;20048;-77
2022/10/15 12:27:33;;;;;;;7.53;6.20;;;14.80;99.90;;;;;;4915032;29;20134;-79
2022/10/15 12:29:58;;;;;;;7.28;6.28;;;14.70;99.90;;;;;;4898389;29;20539;-77
2022/10/15 12:32:39;;;;;;;7.30;6.25;;;14.90;99.90;;;;;;4881425;29;20059;-78
2022/10/15 12:35:27;;;;;;;5.43;4.82;;;15.10;99.90;;;;;;4897099;29;20099;-81
2022/10/15 12:37:53;;;;;;;4.05;3.55;;;14.80;99.90;;;;;;4876245;29;20044;-80
2022/10/15 12:40:21;;;;;;;6.10;5.20;;;14.90;99.90;;;;;;4882251;29;20047;-78
2022/10/15 12:42:58;;;;;;;6.30;5.28;;;15.00;99.90;;;;;;4898532;29;20044;-78
2022/10/15 12:45:36;;;;;;;6.82;5.70;;;14.90;99.90;;;;;;4894627;29;20052;-77
2022/10/15 12:48:05;;;;;;;5.88;5.13;;;14.90;99.90;;;;;;4897159;29;20059;-77
2022/10/15 12:50:36;;;;;;;4.47;3.95;;;15.10;99.90;;;;;;4896332;29;20044;-80
2022/10/15 12:53:05;;;;;;;4.88;4.05;;;14.90;99.90;;;;;;4897584;29;20048;-78
2022/10/15 12:55:36;;;;;;;6.18;5.20;;;14.90;99.90;;;;;;4896710;29;20036;-79
2022/10/15 12:58:05;;;;;;;5.70;4.80;;;14.90;99.90;;;;;;4893283;29;20421;-79
2022/10/15 13:00:37;;;;;;;7.15;4.75;;;14.80;99.90;;;;;;4893634;29;20040;-79
2022/10/15 13:03:24;;;;;;;6.05;4.18;;;14.80;99.90;;;;;;4896347;29;20037;-79
2022/10/15 13:05:50;;;;;;;6.68;5.18;;;15.00;99.90;;;;;;4896140;29;20051;-78
2022/10/15 13:08:21;;;;;;;;;;;14.90;99.90;;;;;;4897063;29;20135;-79